createdAt,value
2018-09-22T00:01:04.516Z,80.04
2018-09-22T00:03:33.446Z,79.90
2018-09-22T00:06:02.341Z,79.54
2018-09-22T00:08:31.416Z,79.31
2018-09-22T00:11:00.350Z,79.60
2018-09-22T00:13:29.414Z,80.17
2018-09-22T00:15:58.445Z,79.93
2018-09-22T00:18:27.465Z,79.88
2018-09-22T00:20:56.419Z,79.70
2018-09-22T00:23:25.449Z,80.71
2018-09-22T00:25:54.366Z,80.43
2018-09-22T00:28:23.313Z,80.01
2018-09-22T00:30:52.321Z,80.21
2018-09-22T00:33:21.304Z,80.34
2018-09-22T00:35:50.288Z,80.48
2018-09-22T00:38:19.234Z,80.56
2018-09-22T00:40:48.146Z,80.76
2018-09-22T00:43:17.077Z,80.25
2018-09-22T00:45:46.018Z,80.24
2018-09-22T00:48:14.923Z,80.52
2018-09-22T00:50:44.007Z,80.73
2018-09-22T00:53:12.985Z,80.78
2018-09-22T00:55:42.065Z,80.98
2018-09-22T00:58:11.098Z,82.17
2018-09-22T01:00:40.055Z,82.49
2018-09-22T01:03:09.176Z,81.60
2018-09-22T01:05:38.370Z,82.27
2018-09-22T01:08:07.346Z,82.68
2018-09-22T01:10:36.278Z,82.55
2018-09-22T01:13:05.351Z,82.11
2018-09-22T01:15:34.358Z,82.65
2018-09-22T01:18:03.338Z,82.75
2018-09-22T01:20:32.266Z,82.18
2018-09-22T01:23:01.508Z,82.48
2018-09-22T01:25:30.469Z,81.65
2018-09-22T01:27:59.516Z,82.29
2018-09-22T01:30:28.462Z,82.62
2018-09-22T01:32:57.558Z,82.10
2018-09-22T01:35:27.447Z,82.55
2018-09-22T01:37:56.459Z,81.86
2018-09-22T01:40:25.424Z,82.13
2018-09-22T01:42:54.565Z,82.12
2018-09-22T01:45:23.490Z,82.57
2018-09-22T01:47:52.526Z,82.48
2018-09-22T01:50:21.498Z,82.77
2018-09-22T01:52:50.603Z,82.61
2018-09-22T01:55:20.028Z,82.79
2018-09-22T01:57:49.067Z,82.67
2018-09-22T02:00:18.104Z,82.80
2018-09-22T02:02:47.138Z,82.71
2018-09-22T02:05:16.539Z,82.09
2018-09-22T02:07:45.515Z,81.89
2018-09-22T02:10:14.471Z,82.24
2018-09-22T02:12:43.357Z,82.11
2018-09-22T02:15:12.240Z,81.95
2018-09-22T02:17:41.223Z,82.44
2018-09-22T02:20:10.263Z,82.05
2018-09-22T02:22:39.173Z,82.54
2018-09-22T02:25:08.079Z,82.08
2018-09-22T02:27:36.996Z,82.29
2018-09-22T02:30:06.019Z,82.25
2018-09-22T02:32:35.022Z,81.70
2018-09-22T02:35:03.936Z,81.51
2018-09-22T02:37:32.978Z,81.32
2018-09-22T02:40:02.022Z,81.40
2018-09-22T02:42:31.080Z,81.50
2018-09-22T02:45:00.154Z,81.26
2018-09-22T02:47:29.431Z,81.34
2018-09-22T02:49:58.504Z,81.90
2018-09-22T02:52:27.444Z,81.96
2018-09-22T02:54:57.093Z,81.09
2018-09-22T02:57:26.019Z,81.69
2018-09-22T02:59:54.994Z,82.46
2018-09-22T03:02:23.946Z,82.04
2018-09-22T03:04:52.865Z,82.17
2018-09-22T03:07:21.898Z,83.05
2018-09-22T03:09:50.816Z,82.82
2018-09-22T03:12:19.829Z,82.65
2018-09-22T03:14:48.967Z,83.01
2018-09-22T03:17:17.935Z,82.92
2018-09-22T03:19:46.990Z,83.25
2018-09-22T03:22:15.883Z,83.05
2018-09-22T03:24:44.801Z,83.34
2018-09-22T03:27:13.742Z,83.58
2018-09-22T03:29:42.630Z,83.64
2018-09-22T03:32:11.800Z,82.88
2018-09-22T03:34:40.706Z,83.71
2018-09-22T03:37:09.643Z,83.04
2018-09-22T03:39:38.571Z,83.69
2018-09-22T03:42:07.557Z,83.63
2018-09-22T03:44:36.424Z,83.96
2018-09-22T03:47:05.310Z,83.84
2018-09-22T03:49:34.361Z,83.35
2018-09-22T03:52:03.339Z,83.58
2018-09-22T03:54:32.277Z,84.09
2018-09-22T03:57:01.181Z,84.43
2018-09-22T03:59:30.099Z,84.16
2018-09-22T04:01:59.010Z,83.70
2018-09-22T04:04:27.919Z,84.56
2018-09-22T04:06:57.079Z,84.06
2018-09-22T04:09:26.123Z,84.46
2018-09-22T04:11:54.991Z,83.37
2018-09-22T04:14:23.904Z,83.76
2018-09-22T04:16:52.788Z,84.37
2018-09-22T04:19:21.739Z,84.47
2018-09-22T04:21:50.615Z,84.37
2018-09-22T04:24:20.184Z,83.87
2018-09-22T04:26:50.285Z,85.03
2018-09-22T04:29:20.057Z,84.26
2018-09-22T04:31:49.324Z,84.82
2018-09-22T04:34:18.797Z,84.85
2018-09-22T04:36:47.709Z,84.55
2018-09-22T04:39:16.636Z,85.22
2018-09-22T04:41:46.375Z,85.53
2018-09-22T04:44:15.448Z,85.22
2018-09-22T04:46:44.344Z,84.02
2018-09-22T04:49:13.247Z,85.31
2018-09-22T04:51:42.172Z,84.82
2018-09-22T04:54:11.061Z,84.68
2018-09-22T04:56:40.099Z,85.19
2018-09-22T04:59:08.996Z,84.83
2018-09-22T05:01:37.888Z,84.23
2018-09-22T05:04:06.817Z,85.44
2018-09-22T05:06:35.692Z,85.52
2018-09-22T05:09:07.599Z,85.59
2018-09-22T05:11:36.547Z,85.65
2018-09-22T05:14:05.446Z,85.67
2018-09-22T05:16:34.347Z,85.68
2018-09-22T05:19:03.299Z,85.22
2018-09-22T05:21:32.242Z,86.13
2018-09-22T05:24:01.156Z,85.42
2018-09-22T05:26:30.101Z,85.92
2018-09-22T05:28:59.021Z,85.65
2018-09-22T05:31:28.178Z,86.20
2018-09-22T05:33:57.176Z,86.04
2018-09-22T05:36:26.072Z,85.20
2018-09-22T05:38:55.141Z,86.00
2018-09-22T05:41:24.053Z,86.58
2018-09-22T05:43:52.923Z,86.27
2018-09-22T05:46:22.231Z,85.89
2018-09-22T05:48:51.475Z,85.72
2018-09-22T05:51:20.391Z,85.99
2018-09-22T05:53:49.301Z,85.72
2018-09-22T05:56:18.201Z,86.11
2018-09-22T05:58:47.150Z,86.05
2018-09-22T06:01:16.079Z,86.37
2018-09-22T06:03:45.014Z,86.26
2018-09-22T06:06:14.119Z,86.07
2018-09-22T06:08:43.015Z,86.61
2018-09-22T06:11:11.939Z,86.14
2018-09-22T06:13:40.875Z,86.33
2018-09-22T06:16:09.996Z,85.45
2018-09-22T06:18:39.212Z,85.68
2018-09-22T06:21:08.126Z,85.61
2018-09-22T06:23:37.214Z,85.51
2018-09-22T06:26:06.081Z,85.70
2018-09-22T06:28:35.111Z,85.35
2018-09-22T06:31:04.524Z,85.66
2018-09-22T06:33:33.492Z,85.04
2018-09-22T06:36:02.444Z,85.32
2018-09-22T06:38:31.416Z,85.55
2018-09-22T06:41:00.307Z,85.52
2018-09-22T06:43:29.406Z,86.05
2018-09-22T06:45:58.615Z,85.29
2018-09-22T06:48:27.554Z,84.57
2018-09-22T06:50:56.440Z,85.65
2018-09-22T06:53:25.321Z,85.16
2018-09-22T06:55:54.234Z,85.45
2018-09-22T06:58:23.153Z,85.32
2018-09-22T07:00:52.028Z,84.53
2018-09-22T07:03:20.982Z,84.81
2018-09-22T07:05:49.897Z,84.50
2018-09-22T07:08:18.802Z,84.42
2018-09-22T07:10:47.921Z,84.52
2018-09-22T07:13:16.790Z,84.16
2018-09-22T07:15:45.702Z,84.35
2018-09-22T07:18:14.804Z,84.50
2018-09-22T07:20:49.005Z,84.80
2018-09-22T07:23:18.735Z,84.40
2018-09-22T07:25:47.666Z,84.04
2018-09-22T07:28:16.594Z,83.82
2018-09-22T07:30:45.543Z,83.72
2018-09-22T07:33:14.429Z,83.39
2018-09-22T07:35:43.357Z,82.84
2018-09-22T07:38:12.272Z,82.92
2018-09-22T07:40:41.245Z,82.57
2018-09-22T07:43:10.146Z,83.03
2018-09-22T07:45:39.083Z,82.72
2018-09-22T07:48:07.979Z,82.64
2018-09-22T07:50:36.894Z,82.23
2018-09-22T07:53:05.849Z,82.29
2018-09-22T07:55:34.770Z,82.05
2018-09-22T07:58:03.758Z,81.84
2018-09-22T08:00:32.938Z,81.97
2018-09-22T08:03:01.991Z,82.03
2018-09-22T08:05:30.889Z,81.60
2018-09-22T08:07:59.815Z,81.22
2018-09-22T08:10:28.775Z,80.83
2018-09-22T08:12:57.723Z,80.70
2018-09-22T08:15:27.721Z,80.38
2018-09-22T08:17:56.650Z,80.43
2018-09-22T08:20:26.052Z,80.01
2018-09-22T08:22:54.947Z,80.00
2018-09-22T08:25:25.881Z,79.85
2018-09-22T08:27:54.765Z,79.11
2018-09-22T08:30:23.827Z,78.83
2018-09-22T08:32:52.716Z,78.55
2018-09-22T08:35:25.423Z,78.59
2018-09-22T08:37:54.417Z,78.12
2018-09-22T08:40:23.332Z,78.03
2018-09-22T08:42:53.363Z,78.39
2018-09-22T08:45:22.355Z,77.79
2018-09-22T08:47:51.283Z,77.48
2018-09-22T08:50:20.211Z,77.40
2018-09-22T08:52:51.284Z,77.01
2018-09-22T08:55:20.246Z,76.95
2018-09-22T08:57:49.169Z,76.91
2018-09-22T09:00:18.071Z,76.18
2018-09-22T09:02:46.963Z,76.72
2018-09-22T09:05:15.888Z,76.74
2018-09-22T09:07:44.865Z,75.99
2018-09-22T09:10:13.758Z,76.67
2018-09-22T09:12:42.725Z,76.67
2018-09-22T09:15:11.662Z,75.07
2018-09-22T09:17:40.634Z,75.98
2018-09-22T09:20:09.567Z,75.44
2018-09-22T09:22:38.504Z,74.49
2018-09-22T09:25:07.423Z,73.42
2018-09-22T09:27:37.094Z,73.21
2018-09-22T09:30:06.514Z,73.38
2018-09-22T09:32:35.503Z,74.16
2018-09-22T09:35:04.421Z,72.37
2018-09-22T09:37:33.338Z,71.97
2018-09-22T09:40:02.294Z,72.17
2018-09-22T09:42:31.297Z,71.49
2018-09-22T09:45:01.708Z,71.23
2018-09-22T09:47:30.660Z,70.46
2018-09-22T09:49:59.601Z,69.70
2018-09-22T09:52:28.510Z,68.24
2018-09-22T09:54:57.893Z,69.52
2018-09-22T09:57:26.764Z,68.30
2018-09-22T09:59:55.651Z,67.88
2018-09-22T10:02:24.592Z,67.57
2018-09-22T10:04:53.495Z,67.54
2018-09-22T10:07:22.410Z,67.67
2018-09-22T10:09:51.522Z,68.22
2018-09-22T10:12:20.429Z,68.08
2018-09-22T10:14:49.362Z,68.18
2018-09-22T10:17:18.297Z,67.12
2018-09-22T10:19:47.244Z,67.64
2018-09-22T10:22:16.158Z,67.97
2018-09-22T10:24:45.125Z,67.68
2018-09-22T10:27:14.706Z,68.11
2018-09-22T10:29:43.680Z,67.78
2018-09-22T10:32:13.431Z,68.24
2018-09-22T10:34:42.399Z,67.38
2018-09-22T10:37:12.306Z,67.12
2018-09-22T10:39:41.265Z,67.38
2018-09-22T10:42:10.330Z,66.76
2018-09-22T10:44:39.192Z,66.75
2018-09-22T10:47:08.157Z,66.37
2018-09-22T10:49:37.085Z,66.21
2018-09-22T10:52:05.985Z,65.64
2018-09-22T10:54:34.910Z,63.73
2018-09-22T10:57:06.498Z,64.92
2018-09-22T10:59:35.980Z,64.30
2018-09-22T11:02:05.018Z,64.60
2018-09-22T11:04:33.904Z,63.93
2018-09-22T11:07:02.895Z,63.68
2018-09-22T11:09:31.816Z,64.29
2018-09-22T11:12:00.773Z,64.07
2018-09-22T11:14:29.903Z,63.50
2018-09-22T11:16:59.362Z,63.74
2018-09-22T11:19:28.258Z,63.72
2018-09-22T11:21:57.182Z,64.19
2018-09-22T11:24:26.108Z,63.10
2018-09-22T11:26:55.052Z,62.91
2018-09-22T11:29:23.918Z,62.60
2018-09-22T11:31:58.299Z,63.07
2018-09-22T11:34:28.016Z,63.28
2018-09-22T11:36:57.005Z,62.45
2018-09-22T11:39:26.429Z,62.36
2018-09-22T11:41:57.027Z,62.15
2018-09-22T11:44:26.863Z,63.25
2018-09-22T11:46:58.071Z,62.84
2018-09-22T11:49:27.135Z,63.56
2018-09-22T11:51:57.801Z,62.57
2018-09-22T11:54:27.206Z,62.37
2018-09-22T11:56:56.112Z,62.71
2018-09-22T11:59:25.012Z,62.47
2018-09-22T12:01:53.942Z,61.14
2018-09-22T12:04:22.879Z,60.09
2018-09-22T12:06:51.797Z,59.40
2018-09-22T12:09:21.308Z,58.89
2018-09-22T12:11:53.422Z,57.16
2018-09-22T12:14:22.364Z,56.82
2018-09-22T12:16:51.228Z,56.84
2018-09-22T12:19:25.222Z,56.62
2018-09-22T12:21:54.188Z,58.53
2018-09-22T12:24:23.118Z,58.73
2018-09-22T12:26:52.053Z,57.81
2018-09-22T12:29:20.960Z,58.62
2018-09-22T12:31:49.893Z,58.43
2018-09-22T12:34:18.883Z,58.03
2018-09-22T12:36:47.867Z,57.98
2018-09-22T12:39:16.807Z,56.96
2018-09-22T12:41:46.528Z,57.37
2018-09-22T12:44:16.874Z,57.40
2018-09-22T12:46:46.197Z,57.33
2018-09-22T12:49:15.119Z,58.07
2018-09-22T12:51:44.016Z,58.63
2018-09-22T12:54:12.952Z,59.44
2018-09-22T12:56:41.851Z,59.01
2018-09-22T12:59:10.793Z,58.70
2018-09-22T13:01:40.243Z,58.64
2018-09-22T13:04:09.204Z,58.83
2018-09-22T13:06:38.122Z,59.27
2018-09-22T13:09:08.374Z,59.12
2018-09-22T13:11:37.295Z,57.81
2018-09-22T13:14:07.014Z,57.81
2018-09-22T13:16:35.907Z,57.33
2018-09-22T13:19:09.149Z,58.61
2018-09-22T13:21:39.635Z,58.37
2018-09-22T13:24:08.549Z,58.06
2018-09-22T13:26:37.525Z,57.17
2018-09-22T13:29:06.416Z,56.62
2018-09-22T13:31:35.332Z,56.62
2018-09-22T13:34:04.323Z,56.63
2018-09-22T13:36:33.258Z,57.25
2018-09-22T13:39:02.204Z,56.88
2018-09-22T13:41:31.114Z,56.56
2018-09-22T13:44:00.348Z,55.87
2018-09-22T13:46:29.217Z,56.83
2018-09-22T13:48:59.125Z,56.64
2018-09-22T13:51:28.090Z,56.65
2018-09-22T13:53:56.990Z,56.57
2018-09-22T13:56:25.931Z,55.79
2018-09-22T13:58:54.848Z,55.50
2018-09-22T14:01:23.766Z,56.38
2018-09-22T14:03:53.193Z,56.14
2018-09-22T14:06:22.529Z,56.30
2018-09-22T14:08:51.600Z,56.30
2018-09-22T14:11:20.480Z,56.33
2018-09-22T14:13:49.385Z,55.98
2018-09-22T14:16:18.413Z,55.94
2018-09-22T14:18:47.447Z,56.28
2018-09-22T14:21:18.057Z,56.74
2018-09-22T14:23:47.313Z,57.69
2018-09-22T14:26:18.849Z,58.79
2018-09-22T14:28:47.744Z,60.10
2018-09-22T14:31:16.641Z,61.02
2018-09-22T14:33:45.563Z,61.89
2018-09-22T14:36:14.504Z,61.48
2018-09-22T14:38:43.395Z,61.33
2018-09-22T14:41:12.577Z,60.56
2018-09-22T14:43:41.466Z,60.89
2018-09-22T14:46:10.365Z,60.21
2018-09-22T14:48:39.491Z,60.69
2018-09-22T14:51:08.363Z,60.81
2018-09-22T14:53:38.299Z,61.15
2018-09-22T14:56:07.504Z,62.43
2018-09-22T14:58:36.387Z,63.45
2018-09-22T15:01:05.299Z,63.80
2018-09-22T15:03:34.186Z,65.18
2018-09-22T15:06:03.078Z,65.00
2018-09-22T15:08:32.040Z,65.42
2018-09-22T15:11:00.967Z,66.66
2018-09-22T15:13:29.867Z,68.68
2018-09-22T15:15:58.753Z,71.70
2018-09-22T15:18:27.655Z,74.27
2018-09-22T15:20:56.624Z,73.83
2018-09-22T15:23:25.501Z,75.44
2018-09-22T15:25:54.432Z,75.58
2018-09-22T15:28:23.340Z,75.61
2018-09-22T15:30:52.309Z,75.53
2018-09-22T15:33:21.193Z,75.21
2018-09-22T15:35:50.130Z,75.49
2018-09-22T15:38:19.118Z,75.92
2018-09-22T15:40:48.578Z,74.56
2018-09-22T15:43:17.544Z,75.95
2018-09-22T15:45:46.492Z,76.09
2018-09-22T15:48:15.604Z,75.78
2018-09-22T15:50:45.846Z,75.24
2018-09-22T15:55:49.170Z,77.29
2018-09-22T15:58:18.091Z,76.87
2018-09-22T16:00:47.672Z,76.48
2018-09-22T16:03:16.596Z,76.80
2018-09-22T16:05:45.499Z,77.19
2018-09-22T16:08:21.282Z,77.43
2018-09-22T16:10:52.619Z,77.67
2018-09-22T16:13:21.679Z,77.22
2018-09-22T16:15:50.575Z,78.32
2018-09-22T16:18:19.527Z,77.84
2018-09-22T16:20:48.487Z,77.37
2018-09-22T16:23:17.374Z,77.01
2018-09-22T16:25:46.419Z,76.53
2018-09-22T16:28:15.302Z,76.41
2018-09-22T16:30:45.091Z,76.44
2018-09-22T16:33:15.003Z,75.96
2018-09-22T16:35:43.893Z,78.42
2018-09-22T16:38:12.821Z,78.07
2018-09-22T16:40:41.717Z,77.08
2018-09-22T16:43:10.647Z,78.18
2018-09-22T16:45:40.880Z,77.71
2018-09-22T16:48:10.514Z,77.39
2018-09-22T16:50:39.427Z,79.15
2018-09-22T16:53:08.250Z,80.79
2018-09-22T16:55:37.231Z,81.26
2018-09-22T16:58:06.130Z,82.51
2018-09-22T17:00:35.270Z,82.42
2018-09-22T17:03:04.186Z,82.79
2018-09-22T17:05:33.215Z,83.17
2018-09-22T17:08:02.306Z,82.47
2018-09-22T17:10:31.235Z,82.27
2018-09-22T17:13:00.167Z,81.61
2018-09-22T17:15:29.262Z,81.71
2018-09-22T17:17:58.159Z,81.78
2018-09-22T17:20:27.061Z,81.72
2018-09-22T17:22:56.015Z,82.22
2018-09-22T17:25:24.939Z,82.44
2018-09-22T17:27:53.883Z,82.63
2018-09-22T17:30:22.837Z,82.11
2018-09-22T17:32:51.711Z,82.98
2018-09-22T17:35:20.795Z,82.97
2018-09-22T17:37:49.737Z,81.99
2018-09-22T17:40:18.596Z,83.54
2018-09-22T17:42:47.528Z,82.98
2018-09-22T17:45:16.426Z,83.62
2018-09-22T17:47:45.389Z,83.51
2018-09-22T17:50:14.475Z,84.24
2018-09-22T17:52:43.361Z,83.70
2018-09-22T17:55:12.239Z,83.37
2018-09-22T17:57:41.237Z,83.32
2018-09-22T18:00:10.544Z,83.90
2018-09-22T18:02:39.432Z,83.36
2018-09-22T18:05:08.306Z,84.24
2018-09-22T18:07:37.238Z,84.47
2018-09-22T18:10:06.125Z,84.57
2018-09-22T18:12:34.997Z,84.88
2018-09-22T18:15:04.075Z,83.91
2018-09-22T18:17:32.999Z,84.54
2018-09-22T18:20:02.202Z,85.56
2018-09-22T18:22:31.114Z,84.95
2018-09-22T18:24:59.999Z,84.25
2018-09-22T18:27:29.020Z,85.68
2018-09-22T18:29:57.908Z,85.10
2018-09-22T18:32:26.902Z,84.97
2018-09-22T18:34:55.808Z,84.42
2018-09-22T18:37:24.747Z,84.76
2018-09-22T18:39:53.640Z,84.85
2018-09-22T18:42:22.620Z,84.96
2018-09-22T18:44:51.516Z,85.28
2018-09-22T18:47:20.387Z,84.01
2018-09-22T18:49:49.325Z,84.86
2018-09-22T18:52:18.263Z,84.54
2018-09-22T18:54:47.185Z,84.28
2018-09-22T18:57:16.130Z,84.67
2018-09-22T18:59:45.026Z,84.27
2018-09-22T19:02:13.930Z,84.25
2018-09-22T19:04:42.836Z,84.16
2018-09-22T19:07:11.707Z,83.69
2018-09-22T19:09:40.773Z,83.56
2018-09-22T19:12:09.654Z,84.34
2018-09-22T19:14:43.962Z,84.02
2018-09-22T19:17:16.943Z,84.42
2018-09-22T19:19:58.887Z,83.71
2018-09-22T19:22:31.840Z,84.27
2018-09-22T19:25:04.463Z,84.51
2018-09-22T19:27:37.249Z,84.29
2018-09-22T19:30:11.573Z,84.94
2018-09-22T19:32:45.074Z,85.27
2018-09-22T19:35:17.798Z,84.81
2018-09-22T19:37:49.928Z,85.75
2018-09-22T19:40:27.322Z,85.55
2018-09-22T19:43:59.403Z,85.86
2018-09-22T19:46:47.644Z,85.51
2018-09-22T19:49:23.097Z,86.37
2018-09-22T19:51:57.961Z,86.29
2018-09-22T19:54:26.906Z,86.20
2018-09-22T19:56:55.805Z,86.18
2018-09-22T19:59:24.701Z,85.70
2018-09-22T20:01:53.840Z,86.21
2018-09-22T20:04:22.787Z,85.24
2018-09-22T20:06:51.750Z,85.79
2018-09-22T20:09:20.767Z,86.13
2018-09-22T20:11:49.731Z,86.14
2018-09-22T20:14:18.639Z,86.11
2018-09-22T20:16:47.516Z,86.25
2018-09-22T20:19:16.433Z,86.36
2018-09-22T20:21:45.327Z,86.37
2018-09-22T20:24:14.270Z,85.62
2018-09-22T20:26:43.141Z,86.63
2018-09-22T20:29:12.133Z,85.73
2018-09-22T20:31:41.142Z,86.35
2018-09-22T20:34:10.192Z,86.20
2018-09-22T20:36:39.111Z,86.51
2018-09-22T20:39:09.209Z,86.79
2018-09-22T20:41:38.303Z,87.44
2018-09-22T20:44:07.340Z,86.72
2018-09-22T20:46:36.310Z,86.70
2018-09-22T20:49:05.289Z,86.26
2018-09-22T20:51:34.192Z,86.32
2018-09-22T20:54:03.238Z,86.17
2018-09-22T20:56:32.107Z,86.63
2018-09-22T20:59:01.079Z,87.30
2018-09-22T21:01:29.992Z,86.82
2018-09-22T21:03:58.920Z,87.76
2018-09-22T21:06:27.854Z,87.38
2018-09-22T21:08:56.747Z,87.13
2018-09-22T21:11:25.680Z,86.87
2018-09-22T21:13:54.584Z,86.59
2018-09-22T21:16:23.517Z,86.92
2018-09-22T21:18:52.521Z,86.47
2018-09-22T21:21:21.745Z,86.76
2018-09-22T21:23:50.812Z,86.85
2018-09-22T21:26:19.712Z,86.68
2018-09-22T21:28:48.706Z,86.86
2018-09-22T21:31:17.637Z,87.73
2018-09-22T21:33:46.525Z,88.27
2018-09-22T21:36:15.544Z,88.01
2018-09-22T21:38:44.482Z,88.57
2018-09-22T21:41:13.531Z,88.20
2018-09-22T21:43:42.455Z,88.29
2018-09-22T21:46:11.366Z,87.95
2018-09-22T21:48:40.405Z,87.68
2018-09-22T21:51:09.330Z,88.28
2018-09-22T21:53:38.216Z,87.12
2018-09-22T21:56:07.122Z,87.16
2018-09-22T21:58:36.048Z,88.23
2018-09-22T22:01:09.125Z,87.94
2018-09-22T22:03:38.013Z,87.24
2018-09-22T22:06:06.889Z,87.33
2018-09-22T22:08:35.823Z,87.15
2018-09-22T22:11:04.749Z,87.00
2018-09-22T22:13:33.828Z,87.66
2018-09-22T22:16:02.846Z,87.39
2018-09-22T22:18:31.903Z,87.20
2018-09-22T22:21:00.909Z,87.51
2018-09-22T22:23:29.847Z,87.58
2018-09-22T22:25:58.774Z,88.58
2018-09-22T22:28:27.676Z,87.61
2018-09-22T22:30:56.686Z,88.34
2018-09-22T22:33:25.824Z,88.90
2018-09-22T22:35:54.828Z,88.03
2018-09-22T22:38:23.756Z,87.50
2018-09-22T22:40:52.652Z,87.29
2018-09-22T22:43:21.681Z,87.55
2018-09-22T22:45:50.637Z,87.99
2018-09-22T22:48:19.566Z,88.69
2018-09-22T22:50:48.517Z,87.61
2018-09-22T22:53:17.671Z,88.47
2018-09-22T22:55:46.629Z,87.91
2018-09-22T22:58:15.609Z,86.96
2018-09-22T23:00:44.566Z,88.35
2018-09-22T23:03:13.452Z,87.73
2018-09-22T23:05:42.630Z,87.75
2018-09-22T23:08:11.513Z,88.58
2018-09-22T23:10:40.422Z,88.27
2018-09-22T23:13:09.716Z,89.34
2018-09-22T23:15:38.590Z,88.83
2018-09-22T23:18:07.493Z,89.37
2018-09-22T23:20:36.788Z,88.74
2018-09-22T23:23:05.759Z,88.17
2018-09-22T23:25:34.637Z,89.24
2018-09-22T23:28:03.563Z,88.17
2018-09-22T23:30:32.557Z,88.64
2018-09-22T23:33:01.448Z,88.27
2018-09-22T23:35:30.402Z,88.73
2018-09-22T23:37:59.294Z,89.04
2018-09-22T23:40:28.190Z,89.09
2018-09-22T23:42:57.108Z,88.77
2018-09-22T23:45:26.218Z,89.39
2018-09-22T23:47:55.729Z,89.21
2018-09-22T23:50:24.621Z,89.00
2018-09-22T23:52:53.626Z,89.75
2018-09-22T23:55:22.517Z,89.50
2018-09-22T23:57:51.502Z,89.27
